Terminal Aerodrome Forecast
Issued by NWS

Current Version | Previous Version | Graphics & Text | Print | Product List | Glossary On
Versions: 1 2 3 4 5 6 7 8 9 10 11 12 13 14 15 16 17 18 19 20 21 22 23 24 25 26
000
FTUS41 KRLX 132300
TAFCKB
TAF
KCKB 132320Z 1400/1424 20006KT P6SM SCT250
     FM141300 19010KT P6SM BKN200
     FM141600 20013G22KT P6SM BKN160
     FM141900 21014G25KT P6SM BKN050
     FM142000 21013G23KT P6SM VCTS BKN050CB=

USA.gov is the U.S. government's official web portal to all federal, state and local government web resources and services.